sensor_id;sensor_type;location;lat;lon;timestamp;P1;durP1;ratioP1;P2;durP2;ratioP2
48263;SDS011;34086;51.076;13.722;2024-02-16T00:00:27;51.35;;;34.30;;
48263;SDS011;34086;51.076;13.722;2024-02-16T00:01:28;49.17;;;34.38;;
48263;SDS011;34086;51.076;13.722;2024-02-16T00:02:28;45.67;;;32.42;;
48263;SDS011;34086;51.076;13.722;2024-02-16T00:03:29;49.83;;;34.42;;
48263;SDS011;34086;51.076;13.722;2024-02-16T00:04:31;51.30;;;34.72;;
48263;SDS011;34086;51.076;13.722;2024-02-16T00:05:32;49.08;;;35.00;;
48263;SDS011;34086;51.076;13.722;2024-02-16T00:06:32;53.22;;;34.85;;
48263;SDS011;34086;51.076;13.722;2024-02-16T00:07:34;51.65;;;35.60;;
48263;SDS011;34086;51.076;13.722;2024-02-16T00:08:34;52.78;;;35.25;;
48263;SDS011;34086;51.076;13.722;2024-02-16T00:09:38;50.22;;;34.65;;
48263;SDS011;34086;51.076;13.722;2024-02-16T00:10:39;51.30;;;34.97;;
48263;SDS011;34086;51.076;13.722;2024-02-16T00:11:39;51.28;;;35.58;;
48263;SDS011;34086;51.076;13.722;2024-02-16T00:12:40;50.85;;;34.65;;
48263;SDS011;34086;51.076;13.722;2024-02-16T00:13:42;52.10;;;35.25;;
48263;SDS011;34086;51.076;13.722;2024-02-16T00:14:42;50.97;;;34.88;;
48263;SDS011;34086;51.076;13.722;2024-02-16T00:15:43;51.05;;;34.42;;
48263;SDS011;34086;51.076;13.722;2024-02-16T00:16:43;49.88;;;34.20;;
48263;SDS011;34086;51.076;13.722;2024-02-16T00:17:44;49.58;;;34.10;;
48263;SDS011;34086;51.076;13.722;2024-02-16T00:18:45;52.40;;;34.90;;
48263;SDS011;34086;51.076;13.722;2024-02-16T00:19:45;48.42;;;34.08;;
48263;SDS011;34086;51.076;13.722;2024-02-16T00:20:46;49.83;;;33.88;;
48263;SDS011;34086;51.076;13.722;2024-02-16T00:21:46;52.25;;;34.78;;
48263;SDS011;34086;51.076;13.722;2024-02-16T00:22:47;48.03;;;33.30;;
48263;SDS011;34086;51.076;13.722;2024-02-16T00:23:47;47.78;;;33.95;;
48263;SDS011;34086;51.076;13.722;2024-02-16T00:24:48;49.15;;;33.72;;
48263;SDS011;34086;51.076;13.722;2024-02-16T00:25:49;52.17;;;32.97;;
48263;SDS011;34086;51.076;13.722;2024-02-16T00:26:49;47.10;;;32.15;;
48263;SDS011;34086;51.076;13.722;2024-02-16T00:27:50;50.13;;;34.85;;
48263;SDS011;34086;51.076;13.722;2024-02-16T00:28:53;51.90;;;35.30;;
48263;SDS011;34086;51.076;13.722;2024-02-16T00:29:54;50.58;;;34.72;;
48263;SDS011;34086;51.076;13.722;2024-02-16T00:30:54;52.63;;;35.55;;
48263;SDS011;34086;51.076;13.722;2024-02-16T00:31:55;52.05;;;34.50;;
48263;SDS011;34086;51.076;13.722;2024-02-16T00:32:55;53.15;;;34.80;;
48263;SDS011;34086;51.076;13.722;2024-02-16T00:33:56;50.03;;;34.17;;
48263;SDS011;34086;51.076;13.722;2024-02-16T00:34:57;50.70;;;33.60;;
48263;SDS011;34086;51.076;13.722;2024-02-16T00:35:58;49.63;;;33.30;;
48263;SDS011;34086;51.076;13.722;2024-02-16T00:36:58;48.38;;;32.90;;
48263;SDS011;34086;51.076;13.722;2024-02-16T00:37:59;47.33;;;32.90;;
48263;SDS011;34086;51.076;13.722;2024-02-16T00:39:00;47.03;;;32.92;;
48263;SDS011;34086;51.076;13.722;2024-02-16T00:40:01;50.42;;;33.35;;
48263;SDS011;34086;51.076;13.722;2024-02-16T00:41:01;49.13;;;33.00;;
48263;SDS011;34086;51.076;13.722;2024-02-16T00:42:02;45.53;;;31.67;;
48263;SDS011;34086;51.076;13.722;2024-02-16T00:43:03;47.70;;;33.20;;
48263;SDS011;34086;51.076;13.722;2024-02-16T00:44:03;48.80;;;31.90;;
48263;SDS011;34086;51.076;13.722;2024-02-16T00:45:04;48.47;;;33.33;;
48263;SDS011;34086;51.076;13.722;2024-02-16T00:46:05;47.70;;;31.77;;
48263;SDS011;34086;51.076;13.722;2024-02-16T00:47:05;46.22;;;32.50;;
48263;SDS011;34086;51.076;13.722;2024-02-16T00:48:06;48.00;;;31.98;;
48263;SDS011;34086;51.076;13.722;2024-02-16T00:49:07;51.65;;;32.92;;
48263;SDS011;34086;51.076;13.722;2024-02-16T00:50:10;53.13;;;34.28;;
48263;SDS011;34086;51.076;13.722;2024-02-16T00:51:11;51.47;;;33.13;;
48263;SDS011;34086;51.076;13.722;2024-02-16T00:52:11;49.45;;;33.53;;
48263;SDS011;34086;51.076;13.722;2024-02-16T00:53:12;50.17;;;32.78;;
48263;SDS011;34086;51.076;13.722;2024-02-16T00:54:13;48.85;;;32.22;;
48263;SDS011;34086;51.076;13.722;2024-02-16T00:55:13;48.28;;;33.03;;
48263;SDS011;34086;51.076;13.722;2024-02-16T00:56:14;51.65;;;33.70;;
48263;SDS011;34086;51.076;13.722;2024-02-16T00:57:15;50.47;;;33.67;;
48263;SDS011;34086;51.076;13.722;2024-02-16T00:58:16;49.65;;;31.85;;
48263;SDS011;34086;51.076;13.722;2024-02-16T00:59:17;48.35;;;31.95;;
48263;SDS011;34086;51.076;13.722;2024-02-16T01:00:17;50.78;;;32.80;;
48263;SDS011;34086;51.076;13.722;2024-02-16T01:01:19;46.45;;;32.30;;
48263;SDS011;34086;51.076;13.722;2024-02-16T01:02:22;47.33;;;32.40;;
48263;SDS011;34086;51.076;13.722;2024-02-16T01:03:22;47.10;;;31.50;;
48263;SDS011;34086;51.076;13.722;2024-02-16T01:04:23;47.00;;;31.33;;
48263;SDS011;34086;51.076;13.722;2024-02-16T01:05:24;49.55;;;32.95;;
48263;SDS011;34086;51.076;13.722;2024-02-16T01:06:24;47.58;;;31.67;;
48263;SDS011;34086;51.076;13.722;2024-02-16T01:07:25;47.75;;;31.73;;
48263;SDS011;34086;51.076;13.722;2024-02-16T01:08:26;48.13;;;32.22;;
48263;SDS011;34086;51.076;13.722;2024-02-16T01:09:27;49.83;;;33.83;;
48263;SDS011;34086;51.076;13.722;2024-02-16T01:10:28;48.75;;;33.92;;
48263;SDS011;34086;51.076;13.722;2024-02-16T01:11:28;51.78;;;34.10;;
48263;SDS011;34086;51.076;13.722;2024-02-16T01:12:29;50.67;;;33.25;;
48263;SDS011;34086;51.076;13.722;2024-02-16T01:13:32;49.63;;;33.15;;
48263;SDS011;34086;51.076;13.722;2024-02-16T01:14:32;47.80;;;32.75;;
48263;SDS011;34086;51.076;13.722;2024-02-16T01:15:33;50.22;;;33.00;;
48263;SDS011;34086;51.076;13.722;2024-02-16T01:16:34;50.60;;;33.47;;
48263;SDS011;34086;51.076;13.722;2024-02-16T01:17:35;51.40;;;33.30;;
48263;SDS011;34086;51.076;13.722;2024-02-16T01:18:36;48.97;;;31.33;;
48263;SDS011;34086;51.076;13.722;2024-02-16T01:19:37;50.20;;;32.55;;
48263;SDS011;34086;51.076;13.722;2024-02-16T01:20:38;49.33;;;33.08;;
48263;SDS011;34086;51.076;13.722;2024-02-16T01:21:38;49.45;;;32.08;;
48263;SDS011;34086;51.076;13.722;2024-02-16T01:22:39;49.88;;;31.90;;
48263;SDS011;34086;51.076;13.722;2024-02-16T01:23:40;48.15;;;31.85;;
48263;SDS011;34086;51.076;13.722;2024-02-16T01:24:41;47.13;;;31.45;;
48263;SDS011;34086;51.076;13.722;2024-02-16T01:25:41;52.03;;;33.58;;
48263;SDS011;34086;51.076;13.722;2024-02-16T01:26:42;54.92;;;34.00;;
48263;SDS011;34086;51.076;13.722;2024-02-16T01:27:42;49.03;;;32.15;;
48263;SDS011;34086;51.076;13.722;2024-02-16T01:28:43;48.63;;;32.67;;
48263;SDS011;34086;51.076;13.722;2024-02-16T01:29:43;50.17;;;32.63;;
48263;SDS011;34086;51.076;13.722;2024-02-16T01:30:44;48.60;;;31.85;;
48263;SDS011;34086;51.076;13.722;2024-02-16T01:31:45;46.67;;;31.45;;
48263;SDS011;34086;51.076;13.722;2024-02-16T01:32:45;50.03;;;31.60;;
48263;SDS011;34086;51.076;13.722;2024-02-16T01:33:46;43.25;;;29.65;;
48263;SDS011;34086;51.076;13.722;2024-02-16T01:34:46;46.67;;;30.67;;
48263;SDS011;34086;51.076;13.722;2024-02-16T01:35:49;46.85;;;30.25;;
48263;SDS011;34086;51.076;13.722;2024-02-16T01:36:50;50.38;;;31.80;;
48263;SDS011;34086;51.076;13.722;2024-02-16T01:37:50;49.30;;;31.40;;
48263;SDS011;34086;51.076;13.722;2024-02-16T01:38:51;47.22;;;30.63;;
48263;SDS011;34086;51.076;13.722;2024-02-16T01:39:51;46.05;;;30.80;;
48263;SDS011;34086;51.076;13.722;2024-02-16T01:40:52;48.80;;;31.45;;
48263;SDS011;34086;51.076;13.722;2024-02-16T01:41:53;45.78;;;29.98;;
48263;SDS011;34086;51.076;13.722;2024-02-16T01:42:54;43.83;;;28.88;;
48263;SDS011;34086;51.076;13.722;2024-02-16T01:43:54;43.67;;;28.80;;
48263;SDS011;34086;51.076;13.722;2024-02-16T01:44:55;47.72;;;30.35;;
48263;SDS011;34086;51.076;13.722;2024-02-16T01:45:55;44.85;;;29.33;;
48263;SDS011;34086;51.076;13.722;2024-02-16T01:46:58;46.47;;;30.35;;
48263;SDS011;34086;51.076;13.722;2024-02-16T01:47:59;49.55;;;31.80;;
48263;SDS011;34086;51.076;13.722;2024-02-16T01:49:00;46.95;;;30.83;;
48263;SDS011;34086;51.076;13.722;2024-02-16T01:50:02;48.92;;;32.13;;
48263;SDS011;34086;51.076;13.722;2024-02-16T01:51:03;46.95;;;31.08;;
48263;SDS011;34086;51.076;13.722;2024-02-16T01:52:04;46.38;;;30.58;;
48263;SDS011;34086;51.076;13.722;2024-02-16T01:53:05;48.05;;;31.58;;
48263;SDS011;34086;51.076;13.722;2024-02-16T01:54:06;51.45;;;32.08;;
48263;SDS011;34086;51.076;13.722;2024-02-16T01:55:07;48.00;;;30.80;;
48263;SDS011;34086;51.076;13.722;2024-02-16T01:56:11;47.05;;;30.75;;
48263;SDS011;34086;51.076;13.722;2024-02-16T01:57:12;44.55;;;30.30;;
48263;SDS011;34086;51.076;13.722;2024-02-16T01:58:12;46.97;;;30.65;;
48263;SDS011;34086;51.076;13.722;2024-02-16T01:59:13;48.65;;;30.92;;
48263;SDS011;34086;51.076;13.722;2024-02-16T02:00:15;47.63;;;30.83;;
48263;SDS011;34086;51.076;13.722;2024-02-16T02:01:17;46.95;;;30.73;;
48263;SDS011;34086;51.076;13.722;2024-02-16T02:02:18;44.33;;;29.85;;
48263;SDS011;34086;51.076;13.722;2024-02-16T02:03:18;44.70;;;29.70;;
48263;SDS011;34086;51.076;13.722;2024-02-16T02:04:19;46.80;;;30.27;;
48263;SDS011;34086;51.076;13.722;2024-02-16T02:05:20;45.63;;;30.67;;
48263;SDS011;34086;51.076;13.722;2024-02-16T02:06:20;46.88;;;29.15;;
48263;SDS011;34086;51.076;13.722;2024-02-16T02:07:24;49.38;;;30.80;;
48263;SDS011;34086;51.076;13.722;2024-02-16T02:08:27;45.78;;;30.08;;
48263;SDS011;34086;51.076;13.722;2024-02-16T02:09:27;44.92;;;29.60;;
48263;SDS011;34086;51.076;13.722;2024-02-16T02:10:28;47.15;;;30.33;;
48263;SDS011;34086;51.076;13.722;2024-02-16T02:11:28;44.35;;;29.63;;
48263;SDS011;34086;51.076;13.722;2024-02-16T02:12:29;45.78;;;29.10;;
48263;SDS011;34086;51.076;13.722;2024-02-16T02:13:30;43.25;;;29.02;;
48263;SDS011;34086;51.076;13.722;2024-02-16T02:14:30;44.75;;;29.20;;
48263;SDS011;34086;51.076;13.722;2024-02-16T02:15:31;44.00;;;28.95;;
48263;SDS011;34086;51.076;13.722;2024-02-16T02:16:32;47.65;;;29.55;;
48263;SDS011;34086;51.076;13.722;2024-02-16T02:17:33;46.95;;;30.50;;
48263;SDS011;34086;51.076;13.722;2024-02-16T02:18:34;45.83;;;29.83;;
48263;SDS011;34086;51.076;13.722;2024-02-16T02:19:35;44.63;;;28.92;;
48263;SDS011;34086;51.076;13.722;2024-02-16T02:20:36;45.30;;;29.45;;
48263;SDS011;34086;51.076;13.722;2024-02-16T02:21:36;45.15;;;29.00;;
48263;SDS011;34086;51.076;13.722;2024-02-16T02:22:37;45.40;;;29.63;;
48263;SDS011;34086;51.076;13.722;2024-02-16T02:23:38;48.80;;;29.83;;
48263;SDS011;34086;51.076;13.722;2024-02-16T02:24:38;45.55;;;29.48;;
48263;SDS011;34086;51.076;13.722;2024-02-16T02:25:39;47.03;;;29.55;;
48263;SDS011;34086;51.076;13.722;2024-02-16T02:26:40;43.67;;;29.42;;
48263;SDS011;34086;51.076;13.722;2024-02-16T02:27:41;44.42;;;28.13;;
48263;SDS011;34086;51.076;13.722;2024-02-16T02:28:42;46.58;;;29.00;;
48263;SDS011;34086;51.076;13.722;2024-02-16T02:29:43;45.50;;;28.42;;
48263;SDS011;34086;51.076;13.722;2024-02-16T02:30:44;44.47;;;28.15;;
48263;SDS011;34086;51.076;13.722;2024-02-16T02:31:45;43.53;;;28.05;;
48263;SDS011;34086;51.076;13.722;2024-02-16T02:32:46;43.95;;;27.90;;
48263;SDS011;34086;51.076;13.722;2024-02-16T02:33:47;44.75;;;29.30;;
48263;SDS011;34086;51.076;13.722;2024-02-16T02:34:47;45.15;;;28.52;;
48263;SDS011;34086;51.076;13.722;2024-02-16T02:35:48;44.03;;;28.45;;
48263;SDS011;34086;51.076;13.722;2024-02-16T02:36:49;42.95;;;28.48;;
48263;SDS011;34086;51.076;13.722;2024-02-16T02:37:49;44.90;;;28.40;;
48263;SDS011;34086;51.076;13.722;2024-02-16T02:38:50;42.58;;;27.63;;
48263;SDS011;34086;51.076;13.722;2024-02-16T02:39:50;43.88;;;27.95;;
48263;SDS011;34086;51.076;13.722;2024-02-16T02:40:51;43.40;;;28.20;;
48263;SDS011;34086;51.076;13.722;2024-02-16T02:41:51;45.35;;;28.45;;
48263;SDS011;34086;51.076;13.722;2024-02-16T02:42:52;44.95;;;28.90;;
48263;SDS011;34086;51.076;13.722;2024-02-16T02:43:53;42.75;;;27.15;;
48263;SDS011;34086;51.076;13.722;2024-02-16T02:44:54;43.03;;;28.80;;
48263;SDS011;34086;51.076;13.722;2024-02-16T02:45:54;46.58;;;30.00;;
48263;SDS011;34086;51.076;13.722;2024-02-16T02:46:55;46.25;;;29.00;;
48263;SDS011;34086;51.076;13.722;2024-02-16T02:47:56;46.95;;;29.20;;
48263;SDS011;34086;51.076;13.722;2024-02-16T02:48:56;46.08;;;29.10;;
48263;SDS011;34086;51.076;13.722;2024-02-16T02:49:57;49.13;;;29.17;;
48263;SDS011;34086;51.076;13.722;2024-02-16T02:50:57;43.70;;;28.45;;
48263;SDS011;34086;51.076;13.722;2024-02-16T02:51:59;42.42;;;27.95;;
48263;SDS011;34086;51.076;13.722;2024-02-16T02:53:00;43.20;;;28.73;;
48263;SDS011;34086;51.076;13.722;2024-02-16T02:54:01;44.03;;;28.55;;
48263;SDS011;34086;51.076;13.722;2024-02-16T02:55:01;44.47;;;28.33;;
48263;SDS011;34086;51.076;13.722;2024-02-16T02:56:02;43.70;;;28.38;;
48263;SDS011;34086;51.076;13.722;2024-02-16T02:57:04;43.33;;;27.83;;
48263;SDS011;34086;51.076;13.722;2024-02-16T02:58:04;46.33;;;29.08;;
48263;SDS011;34086;51.076;13.722;2024-02-16T02:59:05;43.15;;;28.55;;
48263;SDS011;34086;51.076;13.722;2024-02-16T03:00:06;44.92;;;28.40;;
48263;SDS011;34086;51.076;13.722;2024-02-16T03:01:10;45.05;;;28.02;;
48263;SDS011;34086;51.076;13.722;2024-02-16T03:02:11;44.90;;;28.02;;
48263;SDS011;34086;51.076;13.722;2024-02-16T03:03:12;46.80;;;28.90;;
48263;SDS011;34086;51.076;13.722;2024-02-16T03:04:13;44.67;;;28.38;;
48263;SDS011;34086;51.076;13.722;2024-02-16T03:05:14;40.85;;;27.80;;
48263;SDS011;34086;51.076;13.722;2024-02-16T03:06:18;42.85;;;27.10;;
48263;SDS011;34086;51.076;13.722;2024-02-16T03:07:19;42.58;;;27.27;;
48263;SDS011;34086;51.076;13.722;2024-02-16T03:08:19;44.80;;;27.58;;
48263;SDS011;34086;51.076;13.722;2024-02-16T03:09:20;41.92;;;27.05;;
48263;SDS011;34086;51.076;13.722;2024-02-16T03:10:20;38.35;;;25.67;;
48263;SDS011;34086;51.076;13.722;2024-02-16T03:11:23;41.20;;;26.17;;
48263;SDS011;34086;51.076;13.722;2024-02-16T03:12:24;42.25;;;26.95;;
48263;SDS011;34086;51.076;13.722;2024-02-16T03:13:24;41.13;;;26.45;;
48263;SDS011;34086;51.076;13.722;2024-02-16T03:14:25;40.90;;;26.27;;
48263;SDS011;34086;51.076;13.722;2024-02-16T03:15:25;38.33;;;25.63;;
48263;SDS011;34086;51.076;13.722;2024-02-16T03:16:26;40.20;;;25.73;;
48263;SDS011;34086;51.076;13.722;2024-02-16T03:17:26;40.88;;;26.42;;
48263;SDS011;34086;51.076;13.722;2024-02-16T03:18:33;41.17;;;25.88;;
48263;SDS011;34086;51.076;13.722;2024-02-16T03:19:37;39.83;;;26.25;;
48263;SDS011;34086;51.076;13.722;2024-02-16T03:20:37;39.75;;;26.20;;
48263;SDS011;34086;51.076;13.722;2024-02-16T03:21:38;39.30;;;25.52;;
48263;SDS011;34086;51.076;13.722;2024-02-16T03:22:38;36.95;;;25.17;;
48263;SDS011;34086;51.076;13.722;2024-02-16T03:23:39;39.03;;;25.08;;
48263;SDS011;34086;51.076;13.722;2024-02-16T03:24:40;36.53;;;24.67;;
48263;SDS011;34086;51.076;13.722;2024-02-16T03:25:40;38.20;;;25.67;;
48263;SDS011;34086;51.076;13.722;2024-02-16T03:26:41;38.13;;;25.50;;
48263;SDS011;34086;51.076;13.722;2024-02-16T03:27:42;34.38;;;23.88;;
48263;SDS011;34086;51.076;13.722;2024-02-16T03:28:44;36.95;;;24.20;;
48263;SDS011;34086;51.076;13.722;2024-02-16T03:29:47;35.40;;;23.73;;
48263;SDS011;34086;51.076;13.722;2024-02-16T03:30:47;34.85;;;23.90;;
48263;SDS011;34086;51.076;13.722;2024-02-16T03:31:48;35.83;;;24.88;;
48263;SDS011;34086;51.076;13.722;2024-02-16T03:32:51;35.85;;;23.60;;
48263;SDS011;34086;51.076;13.722;2024-02-16T03:33:52;35.95;;;24.10;;
48263;SDS011;34086;51.076;13.722;2024-02-16T03:34:52;36.90;;;24.85;;
48263;SDS011;34086;51.076;13.722;2024-02-16T03:35:53;34.50;;;24.08;;
48263;SDS011;34086;51.076;13.722;2024-02-16T03:36:53;36.08;;;24.98;;
48263;SDS011;34086;51.076;13.722;2024-02-16T03:37:54;37.90;;;24.67;;
48263;SDS011;34086;51.076;13.722;2024-02-16T03:38:55;37.70;;;24.15;;
48263;SDS011;34086;51.076;13.722;2024-02-16T03:39:56;36.95;;;24.55;;
48263;SDS011;34086;51.076;13.722;2024-02-16T03:40:57;36.72;;;24.92;;
48263;SDS011;34086;51.076;13.722;2024-02-16T03:41:57;34.83;;;24.15;;
48263;SDS011;34086;51.076;13.722;2024-02-16T03:42:58;36.38;;;24.58;;
48263;SDS011;34086;51.076;13.722;2024-02-16T03:43:59;35.67;;;24.30;;
48263;SDS011;34086;51.076;13.722;2024-02-16T03:45:00;35.05;;;24.40;;
48263;SDS011;34086;51.076;13.722;2024-02-16T03:46:01;35.28;;;23.50;;
48263;SDS011;34086;51.076;13.722;2024-02-16T03:47:01;37.17;;;24.92;;
48263;SDS011;34086;51.076;13.722;2024-02-16T03:48:02;35.08;;;24.23;;
48263;SDS011;34086;51.076;13.722;2024-02-16T03:49:03;37.05;;;24.83;;
48263;SDS011;34086;51.076;13.722;2024-02-16T03:50:03;36.15;;;24.48;;
48263;SDS011;34086;51.076;13.722;2024-02-16T03:51:04;36.40;;;25.05;;
48263;SDS011;34086;51.076;13.722;2024-02-16T03:52:05;38.35;;;24.75;;
48263;SDS011;34086;51.076;13.722;2024-02-16T03:53:05;35.60;;;24.48;;
48263;SDS011;34086;51.076;13.722;2024-02-16T03:54:06;35.42;;;24.08;;
48263;SDS011;34086;51.076;13.722;2024-02-16T03:55:07;34.78;;;23.88;;
48263;SDS011;34086;51.076;13.722;2024-02-16T03:56:08;35.10;;;23.77;;
48263;SDS011;34086;51.076;13.722;2024-02-16T03:57:08;36.13;;;24.42;;
48263;SDS011;34086;51.076;13.722;2024-02-16T03:58:11;35.42;;;25.00;;
48263;SDS011;34086;51.076;13.722;2024-02-16T03:59:12;34.25;;;24.10;;
48263;SDS011;34086;51.076;13.722;2024-02-16T04:00:12;34.28;;;24.48;;
48263;SDS011;34086;51.076;13.722;2024-02-16T04:01:15;35.13;;;24.40;;
48263;SDS011;34086;51.076;13.722;2024-02-16T04:02:15;37.42;;;24.98;;
48263;SDS011;34086;51.076;13.722;2024-02-16T04:03:16;36.72;;;24.65;;
48263;SDS011;34086;51.076;13.722;2024-02-16T04:04:16;37.30;;;25.58;;
48263;SDS011;34086;51.076;13.722;2024-02-16T04:05:18;37.40;;;25.50;;
48263;SDS011;34086;51.076;13.722;2024-02-16T04:06:19;37.13;;;25.52;;
48263;SDS011;34086;51.076;13.722;2024-02-16T04:07:19;38.53;;;25.60;;
48263;SDS011;34086;51.076;13.722;2024-02-16T04:08:20;37.55;;;25.90;;
48263;SDS011;34086;51.076;13.722;2024-02-16T04:09:21;36.55;;;25.48;;
48263;SDS011;34086;51.076;13.722;2024-02-16T04:10:21;37.50;;;26.42;;
48263;SDS011;34086;51.076;13.722;2024-02-16T04:11:22;36.92;;;25.13;;
48263;SDS011;34086;51.076;13.722;2024-02-16T04:12:22;39.03;;;26.60;;
48263;SDS011;34086;51.076;13.722;2024-02-16T04:13:23;38.70;;;26.75;;
48263;SDS011;34086;51.076;13.722;2024-02-16T04:14:23;38.13;;;25.95;;
48263;SDS011;34086;51.076;13.722;2024-02-16T04:15:24;37.55;;;25.27;;
48263;SDS011;34086;51.076;13.722;2024-02-16T04:16:25;38.92;;;26.15;;
48263;SDS011;34086;51.076;13.722;2024-02-16T04:17:25;38.05;;;25.98;;
48263;SDS011;34086;51.076;13.722;2024-02-16T04:18:26;38.95;;;26.52;;
48263;SDS011;34086;51.076;13.722;2024-02-16T04:19:26;36.58;;;25.42;;
48263;SDS011;34086;51.076;13.722;2024-02-16T04:20:27;37.58;;;26.80;;
48263;SDS011;34086;51.076;13.722;2024-02-16T04:21:27;39.75;;;26.80;;
48263;SDS011;34086;51.076;13.722;2024-02-16T04:22:28;39.97;;;26.67;;
48263;SDS011;34086;51.076;13.722;2024-02-16T04:23:29;38.58;;;26.75;;
48263;SDS011;34086;51.076;13.722;2024-02-16T04:24:29;36.53;;;26.33;;
48263;SDS011;34086;51.076;13.722;2024-02-16T04:25:30;38.50;;;26.13;;
48263;SDS011;34086;51.076;13.722;2024-02-16T04:26:30;37.88;;;27.05;;
48263;SDS011;34086;51.076;13.722;2024-02-16T04:27:31;39.33;;;26.83;;
48263;SDS011;34086;51.076;13.722;2024-02-16T04:28:31;39.78;;;27.70;;
48263;SDS011;34086;51.076;13.722;2024-02-16T04:29:32;38.45;;;27.02;;
48263;SDS011;34086;51.076;13.722;2024-02-16T04:30:33;39.38;;;27.10;;
48263;SDS011;34086;51.076;13.722;2024-02-16T04:31:33;37.70;;;27.08;;
48263;SDS011;34086;51.076;13.722;2024-02-16T04:32:34;38.75;;;26.90;;
48263;SDS011;34086;51.076;13.722;2024-02-16T04:33:34;39.67;;;26.98;;
48263;SDS011;34086;51.076;13.722;2024-02-16T04:34:35;40.03;;;27.27;;
48263;SDS011;34086;51.076;13.722;2024-02-16T04:35:35;40.58;;;28.20;;
48263;SDS011;34086;51.076;13.722;2024-02-16T04:36:36;39.15;;;27.08;;
48263;SDS011;34086;51.076;13.722;2024-02-16T04:37:37;40.70;;;28.15;;
48263;SDS011;34086;51.076;13.722;2024-02-16T04:38:39;39.72;;;27.30;;
48263;SDS011;34086;51.076;13.722;2024-02-16T04:39:39;41.22;;;28.63;;
48263;SDS011;34086;51.076;13.722;2024-02-16T04:40:40;39.47;;;27.40;;
48263;SDS011;34086;51.076;13.722;2024-02-16T04:41:40;41.88;;;28.00;;
48263;SDS011;34086;51.076;13.722;2024-02-16T04:42:41;41.78;;;28.63;;
48263;SDS011;34086;51.076;13.722;2024-02-16T04:43:41;41.83;;;28.13;;
48263;SDS011;34086;51.076;13.722;2024-02-16T04:44:42;41.72;;;28.50;;
48263;SDS011;34086;51.076;13.722;2024-02-16T04:45:43;41.08;;;28.30;;
48263;SDS011;34086;51.076;13.722;2024-02-16T04:46:43;40.47;;;28.42;;
48263;SDS011;34086;51.076;13.722;2024-02-16T04:47:44;39.47;;;28.98;;
48263;SDS011;34086;51.076;13.722;2024-02-16T04:48:45;43.53;;;29.02;;
48263;SDS011;34086;51.076;13.722;2024-02-16T04:49:45;40.13;;;27.80;;
48263;SDS011;34086;51.076;13.722;2024-02-16T04:50:46;42.53;;;28.88;;
48263;SDS011;34086;51.076;13.722;2024-02-16T04:51:46;41.67;;;28.73;;
48263;SDS011;34086;51.076;13.722;2024-02-16T04:52:47;42.63;;;30.05;;
48263;SDS011;34086;51.076;13.722;2024-02-16T04:53:47;40.92;;;28.45;;
48263;SDS011;34086;51.076;13.722;2024-02-16T04:54:48;42.08;;;29.25;;
48263;SDS011;34086;51.076;13.722;2024-02-16T04:55:49;40.38;;;27.98;;
48263;SDS011;34086;51.076;13.722;2024-02-16T04:56:49;40.10;;;28.45;;
48263;SDS011;34086;51.076;13.722;2024-02-16T04:57:50;40.53;;;28.08;;
48263;SDS011;34086;51.076;13.722;2024-02-16T04:58:51;42.35;;;28.95;;
48263;SDS011;34086;51.076;13.722;2024-02-16T04:59:51;41.83;;;29.05;;
48263;SDS011;34086;51.076;13.722;2024-02-16T05:00:52;41.28;;;28.63;;
48263;SDS011;34086;51.076;13.722;2024-02-16T05:01:52;42.83;;;28.35;;
48263;SDS011;34086;51.076;13.722;2024-02-16T05:02:53;40.40;;;28.05;;
48263;SDS011;34086;51.076;13.722;2024-02-16T05:03:53;41.20;;;28.58;;
48263;SDS011;34086;51.076;13.722;2024-02-16T05:04:54;39.67;;;28.13;;
48263;SDS011;34086;51.076;13.722;2024-02-16T05:05:54;40.50;;;28.63;;
48263;SDS011;34086;51.076;13.722;2024-02-16T05:06:55;40.05;;;28.75;;
48263;SDS011;34086;51.076;13.722;2024-02-16T05:07:57;40.80;;;28.30;;
48263;SDS011;34086;51.076;13.722;2024-02-16T05:08:57;40.42;;;28.38;;
48263;SDS011;34086;51.076;13.722;2024-02-16T05:09:58;42.05;;;28.98;;
48263;SDS011;34086;51.076;13.722;2024-02-16T05:11:02;40.33;;;28.92;;
48263;SDS011;34086;51.076;13.722;2024-02-16T05:12:03;40.45;;;29.35;;
48263;SDS011;34086;51.076;13.722;2024-02-16T05:13:04;39.72;;;28.20;;
48263;SDS011;34086;51.076;13.722;2024-02-16T05:14:04;40.22;;;28.35;;
48263;SDS011;34086;51.076;13.722;2024-02-16T05:15:06;40.00;;;28.35;;
48263;SDS011;34086;51.076;13.722;2024-02-16T05:16:08;40.55;;;28.63;;
48263;SDS011;34086;51.076;13.722;2024-02-16T05:17:09;41.53;;;28.80;;
48263;SDS011;34086;51.076;13.722;2024-02-16T05:18:09;39.38;;;28.50;;
48263;SDS011;34086;51.076;13.722;2024-02-16T05:19:12;40.58;;;28.55;;
48263;SDS011;34086;51.076;13.722;2024-02-16T05:20:13;41.20;;;29.17;;
48263;SDS011;34086;51.076;13.722;2024-02-16T05:21:16;42.75;;;29.15;;
48263;SDS011;34086;51.076;13.722;2024-02-16T05:22:17;41.58;;;29.38;;
48263;SDS011;34086;51.076;13.722;2024-02-16T05:23:21;41.70;;;29.58;;
48263;SDS011;34086;51.076;13.722;2024-02-16T05:24:23;41.20;;;28.50;;
48263;SDS011;34086;51.076;13.722;2024-02-16T05:25:23;40.10;;;27.98;;
48263;SDS011;34086;51.076;13.722;2024-02-16T05:26:24;39.55;;;28.83;;
48263;SDS011;34086;51.076;13.722;2024-02-16T05:27:24;39.90;;;28.73;;
48263;SDS011;34086;51.076;13.722;2024-02-16T05:28:25;39.33;;;28.77;;
48263;SDS011;34086;51.076;13.722;2024-02-16T05:29:25;43.10;;;29.70;;
48263;SDS011;34086;51.076;13.722;2024-02-16T05:30:26;41.25;;;28.65;;
48263;SDS011;34086;51.076;13.722;2024-02-16T05:31:28;42.47;;;29.35;;
48263;SDS011;34086;51.076;13.722;2024-02-16T05:32:28;39.53;;;28.20;;
48263;SDS011;34086;51.076;13.722;2024-02-16T05:33:29;41.33;;;28.65;;
48263;SDS011;34086;51.076;13.722;2024-02-16T05:34:30;40.75;;;29.13;;
48263;SDS011;34086;51.076;13.722;2024-02-16T05:35:37;40.47;;;28.58;;
48263;SDS011;34086;51.076;13.722;2024-02-16T05:36:39;39.85;;;29.13;;
48263;SDS011;34086;51.076;13.722;2024-02-16T05:37:42;41.50;;;29.05;;
48263;SDS011;34086;51.076;13.722;2024-02-16T05:38:44;42.78;;;29.58;;
48263;SDS011;34086;51.076;13.722;2024-02-16T05:39:45;42.50;;;29.90;;
48263;SDS011;34086;51.076;13.722;2024-02-16T05:40:57;43.45;;;29.13;;
48263;SDS011;34086;51.076;13.722;2024-02-16T05:41:58;42.40;;;29.35;;
48263;SDS011;34086;51.076;13.722;2024-02-16T05:42:59;42.13;;;28.88;;
48263;SDS011;34086;51.076;13.722;2024-02-16T05:44:00;39.92;;;28.38;;
48263;SDS011;34086;51.076;13.722;2024-02-16T05:45:01;43.33;;;29.00;;
48263;SDS011;34086;51.076;13.722;2024-02-16T05:46:01;44.60;;;29.88;;
48263;SDS011;34086;51.076;13.722;2024-02-16T05:47:02;39.90;;;28.25;;
48263;SDS011;34086;51.076;13.722;2024-02-16T05:48:03;39.53;;;28.33;;
48263;SDS011;34086;51.076;13.722;2024-02-16T05:49:04;40.90;;;28.70;;
48263;SDS011;34086;51.076;13.722;2024-02-16T05:50:07;43.53;;;28.45;;
48263;SDS011;34086;51.076;13.722;2024-02-16T05:51:08;42.28;;;29.27;;